Flight Track Log - Related Links

Times and Time Zones

All times are in EDT time to prevent confusion due to time zone crossing. See the N658FE flight status page for this flight to view local times or setup timezone preferences in your user account.

Time Position Orientation Groundspeed Altitude Reporting Facility
EDT Latitude Longitude Course Direction KTS MPH feet Rate Location/Type
Fri 04:54:30 PM 35.0333 -89.9833 192° South 150 173 1,200  Level KMEM
Fri 04:55:30 PM 34.9667 -90.0000 192° South 210 242 3,100 2,952 Climbing KMEM
Fri 04:56:36 PM 34.9333 -90.0667 239° Southwest 266 306 7,400 3,667 Climbing KMEM
Fri 04:57:36 PM 34.9667 -90.1500 296° West 282 325 10,800 2,674 Climbing KMEM
Fri 04:58:08 PM 34.9800 -90.2025 287° West 311 358 11,500 2,543 Climbing Memphis Center
Fri 04:59:08 PM 35.0197 -90.3192 293° West 351 404 14,700 3,300 Climbing Memphis Center
Fri 05:00:08 PM 35.0658 -90.4536 293° West 379 436 18,100 3,350 Climbing Memphis Center
Fri 05:01:08 PM 35.1031 -90.5778 290° West 395 455 21,400 2,450 Climbing Memphis Center
Fri 05:02:08 PM 35.1486 -90.7150 292° West 417 480 23,000 800 Climbing Memphis Center
Fri 05:03:08 PM 35.1753 -90.8500 284° West 424 488 23,000 950 Level Memphis Center
Fri 05:04:08 PM 35.2019 -90.9897 283° West 419 482 24,900 2,100 Climbing Memphis Center
Fri 05:05:08 PM 35.2408 -91.1247 289° West 414 476 27,200 2,450 Climbing Memphis Center
Fri 05:06:08 PM 35.3003 -91.2525 300° West 424 488 29,800 1,900 Climbing Memphis Center
Fri 05:07:08 PM 35.3642 -91.3756 303° West 429 494 31,000 700 Climbing Memphis Center
Fri 05:08:08 PM 35.4256 -91.4986 302° West 429 494 31,200 500 Climbing Memphis Center
Fri 05:09:08 PM 35.4850 -91.6217 301° West 429 494 32,000 1,150 Climbing Memphis Center
Fri 05:10:08 PM 35.5483 -91.7425 303° West 429 494 33,500 1,000 Climbing Memphis Center
Fri 05:11:08 PM 35.6094 -91.8636 302° West 429 494 34,000 250 Climbing Memphis Center
Fri 05:12:08 PM 35.6664 -91.9822 301° West 424 488 34,000  Level Memphis Center
Fri 05:13:08 PM 35.7253 -92.1036 301° West 419 482 34,000  Level Memphis Center
Fri 05:14:08 PM 35.7861 -92.2225 302° West 419 482 34,000  Level Memphis Center
Fri 05:15:08 PM 35.8467 -92.3442 302° West 419 482 34,000  Level Memphis Center
Fri 05:16:08 PM 35.9053 -92.4661 301° West 419 482 34,000  Level Memphis Center
Fri 05:17:08 PM 35.9656 -92.5908 301° West 419 482 34,000  Level Memphis Center
Fri 05:18:08 PM 36.0258 -92.7131 301° West 419 482 34,000  Level Memphis Center
Fri 05:19:08 PM 36.0861 -92.8381 301° West 419 482 34,000  Level Memphis Center
Fri 05:20:08 PM 36.1461 -92.9658 300° West 425 489 34,000  Level Memphis Center
Fri 05:21:08 PM 36.2058 -93.0886 301° West 425 489 34,000  Level Memphis Center
Fri 05:22:08 PM 36.2658 -93.2117 301° West 425 489 34,000  Level Memphis Center
Fri 05:23:08 PM 36.3233 -93.3372 300° West 425 489 34,000  Level Memphis Center
Fri 05:24:08 PM 36.3847 -93.4658 301° West 425 489 34,000  Level Memphis Center
Fri 05:26:06 PM 36.5031 -93.7039 302° West 423 487 34,000  Level Kansas City Center
Fri 05:27:08 PM 36.5586 -93.8219 300° West 423 487 34,000  Level Kansas City Center
Fri 05:28:10 PM 36.6189 -93.9486 301° West 425 489 34,000  Level Kansas City Center
Fri 05:29:12 PM 36.6911 -94.1036 300° West 430 495 34,000  Level Kansas City Center
Fri 05:30:14 PM 36.7497 -94.2331 300° West 430 495 34,000  Level Kansas City Center
Fri 05:31:16 PM 36.8103 -94.3633 300° West 433 498 34,000  Level Kansas City Center
Fri 05:32:18 PM 36.8717 -94.4944 300° West 436 502 34,000  Level Kansas City Center
Fri 05:33:20 PM 36.9333 -94.6217 301° West 433 498 34,000  Level Kansas City Center
Fri 05:34:22 PM 36.9967 -94.7506 302° West 434 499 34,000  Level Kansas City Center
Fri 05:35:24 PM 37.0714 -94.9042 301° West 433 498 34,000  Level Kansas City Center
Fri 05:36:26 PM 37.1339 -95.0333 301° West 434 499 34,000  Level Kansas City Center
Fri 05:37:29 PM 37.1950 -95.1606 301° West 431 496 34,000  Level Kansas City Center
Fri 05:38:31 PM 37.2553 -95.2878 301° West 427 491 34,000  Level Kansas City Center
Fri 05:39:33 PM 37.3169 -95.4164 301° West 430 495 34,000  Level Kansas City Center
Fri 05:40:35 PM 37.3903 -95.5719 301° West 430 495 34,000  Level Kansas City Center
Fri 05:41:37 PM 37.4508 -95.6983 301° West 424 488 34,000  Level Kansas City Center
Fri 05:47:08 PM 37.7800 -96.4050 301° West 34,000  Level FlightAware ADS-B
Fri 05:49:08 PM 37.8990 -96.6620 300° West 34,000  Level FlightAware ADS-B
Fri 05:49:58 PM 37.9530 -96.7810 300° West 34,000  Level FlightAware ADS-B
Fri 05:50:53 PM 38.0080 -96.9010 300° West 34,000  Level FlightAware ADS-B
Fri 05:51:28 PM 38.0400 -96.9720 300° West 34,000  Level FlightAware ADS-B
Fri 05:52:18 PM 38.0940 -97.0900 300° West 34,000  Level FlightAware ADS-B
Fri 05:52:53 PM 38.1280 -97.1670 299° West 34,000  Level FlightAware ADS-B
Fri 05:53:43 PM 38.1780 -97.2770 300° West 34,000  Level FlightAware ADS-B
Fri 05:54:23 PM 38.2180 -97.3650 300° West 34,000  Level FlightAware ADS-B
Fri 05:54:58 PM 38.2480 -97.4320 300° West 34,000  Level FlightAware ADS-B
Fri 05:57:13 PM 38.3810 -97.7320 300° West 34,000  Level FlightAware ADS-B
Fri 05:58:10 PM 38.4383 -97.8569 300° West 436 502 34,000  Level Kansas City Center
Fri 05:59:12 PM 38.4978 -97.9906 300° West 435 501 34,000  Level Kansas City Center
Fri 06:00:14 PM 38.5622 -98.1200 303° West 434 499 34,000  Level Kansas City Center
Fri 06:01:16 PM 38.6431 -98.2747 304° West 437 503 34,000  Level Kansas City Center
Fri 06:02:18 PM 38.7100 -98.4058 303° West 441 507 34,000  Level Kansas City Center
Fri 06:03:20 PM 38.7778 -98.5383 303° West 446 513 34,000  Level Kansas City Center
Fri 06:04:22 PM 38.8450 -98.6719 303° West 445 512 34,000  Level Kansas City Center
Fri 06:05:25 PM 38.9122 -98.8044 303° West 444 511 34,000  Level Kansas City Center
Fri 06:06:27 PM 38.9783 -98.9356 303° West 439 505 34,000  Level Kansas City Center
Fri 06:07:29 PM 39.0567 -99.0922 303° West 435 501 34,000  Level Kansas City Center
Fri 06:08:31 PM 39.1225 -99.2267 302° West 442 509 34,000  Level Kansas City Center
Fri 06:09:33 PM 39.1872 -99.3628 302° West 445 512 34,000  Level Kansas City Center
Fri 06:10:35 PM 39.2528 -99.4964 302° West 443 510 34,000  Level Kansas City Center
Fri 06:11:37 PM 39.3206 -99.6322 303° West 440 506 34,000  Level Kansas City Center
Fri 06:12:53 PM 39.4014 -99.7986 302° West 441 507 34,000  Level Denver Center
Fri 06:13:55 PM 39.4597 -99.9578 295° West 441 507 34,000  Level Denver Center
Fri 06:14:57 PM 39.5075 -100.0989 294° West 446 513 34,000  Level Denver Center
Fri 06:15:58 PM 39.5625 -100.2614 294° West 443 510 34,000  Level Denver Center
Fri 06:17:00 PM 39.6103 -100.4025 294° West 443 510 34,000  Level Denver Center
Fri 06:18:02 PM 39.6667 -100.5675 294° West 446 513 34,000  Level Denver Center
Fri 06:23:25 PM 39.9336 -101.3760 294° West 460 529 34,000  Level FlightAware ADS-B
Fri 06:23:55 PM 39.9583 -101.4510 293° West 441 507 34,000  Level FlightAware ADS-B
Fri 06:24:25 PM 39.9828 -101.5270 293° West 458 527 34,000  Level FlightAware ADS-B
Fri 06:24:55 PM 40.0077 -101.6040 293° West 449 517 34,000  Level FlightAware ADS-B
Fri 06:25:26 PM 40.0325 -101.6810 293° West 458 527 34,000  Level FlightAware ADS-B
Fri 06:25:56 PM 40.0575 -101.7570 293° West 461 531 34,000  Level FlightAware ADS-B
Fri 06:26:27 PM 40.0829 -101.8370 293° West 461 531 34,000  Level FlightAware ADS-B
Fri 06:26:58 PM 40.1085 -101.9170 293° West 467 537 34,000  Level FlightAware ADS-B
Fri 06:27:29 PM 40.1337 -101.9970 292° West 467 537 34,000 295 Level FlightAware ADS-B
Fri 06:27:59 PM 40.1586 -102.0760 292° West 461 531 34,300 1,300 Climbing FlightAware ADS-B
Fri 06:28:29 PM 40.1837 -102.1550 293° West 457 526 35,300 1,700 Climbing FlightAware ADS-B
Fri 06:28:59 PM 40.2081 -102.2320 293° West 466 536 36,000 700 Climbing FlightAware ADS-B
Fri 06:29:29 PM 40.2330 -102.3100 293° West 469 540 36,000  Level FlightAware ADS-B
Fri 06:30:00 PM 40.2574 -102.3870 293° West 456 525 36,000  Level FlightAware ADS-B
Fri 06:30:30 PM 40.2816 -102.4640 292° West 444 511 36,000  Level FlightAware ADS-B
Fri 06:31:00 PM 40.3061 -102.5430 292° West 458 527 36,000  Level FlightAware ADS-B
Fri 06:31:30 PM 40.3303 -102.6200 292° West 459 528 36,000  Level FlightAware ADS-B
Fri 06:32:00 PM 40.3548 -102.7000 292° West 482 555 36,000  Level FlightAware ADS-B
Fri 06:32:31 PM 40.3791 -102.7770 293° West 460 529 36,000  Level FlightAware ADS-B
Fri 06:33:01 PM 40.4029 -102.8540 292° West 429 494 36,000  Level FlightAware ADS-B
Fri 06:33:31 PM 40.4273 -102.9340 292° West 467 537 36,000  Level FlightAware ADS-B
Fri 06:34:01 PM 40.4517 -103.0130 292° West 467 537 36,000  Level FlightAware ADS-B
Fri 06:34:32 PM 40.4755 -103.0910 292° West 465 535 36,000  Level FlightAware ADS-B
Fri 06:35:02 PM 40.4994 -103.1680 292° West 445 512 36,000  Level FlightAware ADS-B
Fri 06:35:32 PM 40.5234 -103.2480 292° West 457 526 36,000  Level FlightAware ADS-B
Fri 06:36:02 PM 40.5471 -103.3260 292° West 452 520 36,000  Level FlightAware ADS-B
Fri 06:36:34 PM 40.5723 -103.4090 292° West 451 519 36,000  Level FlightAware ADS-B
Fri 06:37:05 PM 40.5964 -103.4880 292° West 449 517 36,000  Level FlightAware ADS-B
Fri 06:37:35 PM 40.6204 -103.5680 292° West 474 545 36,000  Level FlightAware ADS-B
Fri 06:38:06 PM 40.6446 -103.6480 292° West 464 534 36,000  Level FlightAware ADS-B
Fri 06:38:37 PM 40.6683 -103.7280 291° West 473 544 36,000  Level FlightAware ADS-B
Fri 06:39:07 PM 40.6915 -103.8060 291° West 458 527 36,000  Level FlightAware ADS-B
Fri 06:39:37 PM 40.7155 -103.8870 291° West 487 560 36,000  Level FlightAware ADS-B
Fri 06:40:08 PM 40.7388 -103.9650 292° West 458 527 36,000  Level FlightAware ADS-B
Fri 06:40:39 PM 40.7629 -104.0460 291° West 455 524 36,000  Level FlightAware ADS-B
Fri 06:41:09 PM 40.7860 -104.1250 291° West 478 550 36,000  Level FlightAware ADS-B
Fri 06:41:39 PM 40.8091 -104.2040 291° West 468 539 36,000  Level FlightAware ADS-B
Fri 06:42:09 PM 40.8326 -104.2840 291° West 472 543 36,000  Level FlightAware ADS-B
Fri 06:42:40 PM 40.8559 -104.3640 291° West 466 536 36,000  Level FlightAware ADS-B
Fri 06:43:11 PM 40.8798 -104.4450 291° West 444 511 36,000  Level FlightAware ADS-B
Fri 06:43:41 PM 40.9030 -104.5250 291° West 452 520 36,000  Level FlightAware ADS-B
Fri 06:44:11 PM 40.9261 -104.6050 291° West 456 525 36,000  Level FlightAware ADS-B
Fri 06:44:42 PM 40.9490 -104.6840 291° West 452 520 36,000  Level FlightAware ADS-B
Fri 06:45:12 PM 40.9716 -104.7630 291° West 448 516 36,000  Level FlightAware ADS-B
Fri 06:45:42 PM 40.9946 -104.8440 291° West 466 536 36,000  Level FlightAware ADS-B
Fri 06:46:12 PM 41.0173 -104.9230 291° West 454 522 36,000  Level FlightAware ADS-B
Fri 06:46:44 PM 41.0410 -105.0060 291° West 479 551 36,000  Level FlightAware ADS-B
Fri 06:47:15 PM 41.0647 -105.0890 291° West 469 540 36,000  Level FlightAware ADS-B
Fri 06:47:45 PM 41.0870 -105.1690 290° West 474 545 36,000  Level FlightAware ADS-B
Fri 06:48:23 PM 41.1120 -105.2570 291° West 36,000  Level FlightAware ADS-B
Fri 06:49:03 PM 41.1430 -105.3690 290° West 36,000  Level FlightAware ADS-B
Fri 06:49:33 PM 41.1650 -105.4440 291° West 36,000  Level FlightAware ADS-B
Fri 06:50:23 PM 41.2020 -105.5780 290° West 36,000  Level FlightAware ADS-B
Fri 06:51:03 PM 41.2310 -105.6830 290° West 36,000  Level FlightAware ADS-B
Fri 06:51:48 PM 41.2630 -105.8000 290° West 36,000  Level FlightAware ADS-B
Fri 06:52:33 PM 41.2960 -105.9200 290° West 36,000  Level FlightAware ADS-B
Fri 06:53:13 PM 41.3270 -106.0330 290° West 36,000  Level FlightAware ADS-B
Fri 06:53:48 PM 41.3530 -106.1260 290° West 36,000  Level FlightAware ADS-B
Fri 06:54:38 PM 41.3890 -106.2610 290° West 36,000  Level FlightAware ADS-B
Fri 06:55:18 PM 41.4170 -106.3630 290° West 36,000  Level FlightAware ADS-B
Fri 06:56:03 PM 41.4500 -106.4850 290° West 36,000  Level FlightAware ADS-B
Fri 06:56:43 PM 41.4770 -106.5880 289° West 36,000  Level FlightAware ADS-B
Fri 06:57:23 PM 41.5070 -106.6980 290° West 36,000  Level FlightAware ADS-B
Fri 06:58:18 PM 41.5470 -106.8510 289° West 36,000  Level FlightAware ADS-B
Fri 06:59:18 PM 41.5881 -107.0036 289° West 463 533 36,000  Level Denver Center
Fri 07:00:20 PM 41.6278 -107.1575 289° West 458 527 36,000  Level Denver Center
Fri 07:01:22 PM 41.6750 -107.3364 290° West 459 528 36,000  Level Denver Center
Fri 07:02:24 PM 41.7153 -107.4914 289° West 460 529 36,000  Level Denver Center
Fri 07:03:25 PM 41.7606 -107.6722 289° West 460 529 36,000  Level Denver Center
Fri 07:04:27 PM 41.7997 -107.8258 289° West 458 527 36,000  Level Denver Center
Fri 07:05:41 PM 41.8525 -108.0317 289° West 458 527 36,000  Level Denver Center
Fri 07:06:26 PM 41.8772 -108.1350 288° West 456 525 36,000  Level Salt Lake Center
Fri 07:07:28 PM 41.9239 -108.3167 289° West 461 531 36,000  Level Salt Lake Center
Fri 07:08:29 PM 41.9622 -108.4717 288° West 459 528 36,000  Level Salt Lake Center
Fri 07:09:31 PM 42.0067 -108.6533 288° West 461 531 36,000  Level Salt Lake Center
Fri 07:10:32 PM 42.0433 -108.8075 288° West 457 526 36,000  Level Salt Lake Center
Fri 07:11:34 PM 42.0875 -108.9875 288° West 457 526 36,000  Level Salt Lake Center
Fri 07:12:36 PM 42.1239 -109.1425 288° West 457 526 36,000  Level Salt Lake Center
Fri 07:13:38 PM 42.1669 -109.3236 288° West 457 526 36,000  Level Salt Lake Center
Fri 07:14:39 PM 42.2036 -109.4803 288° West 460 529 36,000  Level Salt Lake Center
Fri 07:15:41 PM 42.2467 -109.6625 288° West 459 528 36,000  Level Salt Lake Center
Fri 07:16:43 PM 42.2828 -109.8189 287° West 459 528 36,000  Level Salt Lake Center
Fri 07:17:44 PM 42.3253 -110.0022 287° West 458 527 36,000  Level Salt Lake Center
Fri 07:18:46 PM 42.3614 -110.1586 287° West 457 526 36,000  Level Salt Lake Center
Fri 07:19:48 PM 42.3981 -110.3133 288° West 454 522 36,000  Level Salt Lake Center
Fri 07:20:50 PM 42.4381 -110.4989 286° West 459 528 36,000  Level Salt Lake Center
Fri 07:21:51 PM 42.4736 -110.6572 287° West 460 529 36,000  Level Salt Lake Center
Fri 07:22:53 PM 42.5128 -110.8417 286° West 459 528 36,000  Level Salt Lake Center
Fri 07:23:55 PM 42.5503 -111.0161 286° West 459 528 36,000  Level Salt Lake Center
Fri 07:24:57 PM 42.5853 -111.1792 286° West 455 524 36,000  Level Salt Lake Center
Fri 07:25:58 PM 42.6197 -111.3444 286° West 456 525 36,000  Level Salt Lake Center
Fri 07:27:00 PM 42.6544 -111.5103 286° West 458 527 36,000  Level Salt Lake Center
Fri 07:28:02 PM 42.6889 -111.6753 286° West 457 526 36,000  Level Salt Lake Center
Fri 07:29:03 PM 42.7264 -111.8553 286° West 454 522 36,000  Level Salt Lake Center
Fri 07:30:05 PM 42.7583 -112.0122 286° West 451 519 36,000  Level Salt Lake Center
Fri 07:31:07 PM 42.7953 -112.1961 285° West 450 518 36,000  Level Salt Lake Center
Fri 07:32:09 PM 42.8272 -112.3522 286° West 448 516 36,000  Level Salt Lake Center
Fri 07:33:10 PM 42.8631 -112.5353 285° West 449 517 36,000  Level Salt Lake Center
Fri 07:34:12 PM 42.8942 -112.6933 285° West 451 519 36,000  Level Salt Lake Center
Fri 07:35:14 PM 42.9303 -112.8789 285° West 452 520 36,000  Level Salt Lake Center
Fri 07:36:16 PM 42.9608 -113.0369 285° West 450 518 36,000  Level Salt Lake Center
Fri 07:37:18 PM 42.9914 -113.1942 285° West 448 516 36,000  Level Salt Lake Center
Fri 07:38:19 PM 43.0261 -113.3803 284° West 451 519 36,000  Level Salt Lake Center
Fri 07:39:21 PM 43.0567 -113.5381 285° West 450 518 36,000  Level Salt Lake Center
Fri 07:40:23 PM 43.0914 -113.7261 284° West 456 525 36,000  Level Salt Lake Center
Fri 07:41:25 PM 43.1186 -113.8833 283° West 466 536 36,000 -732 Level Salt Lake Center
Fri 07:42:26 PM 43.1483 -114.0486 284° West 446 513 34,500 -2,098 Descending Salt Lake Center
Fri 07:43:28 PM 43.1583 -114.2417 274° West 436 502 31,700 -3,387 Descending Salt Lake Center
Fri 07:44:30 PM 43.1614 -114.4003 272° West 435 501 27,500 -3,919 Descending Salt Lake Center
Fri 07:45:32 PM 43.1703 -114.5983 274° West 463 533 23,600 -2,927 Descending Salt Lake Center
Fri 07:46:33 PM 43.1769 -114.7628 273° West 448 516 21,500 -2,098 Descending Salt Lake Center
Fri 07:47:35 PM 43.1853 -114.9469 274° West 447 514 19,300 -1,839 Descending Salt Lake Center
Fri 07:48:37 PM 43.2119 -115.0983 284° West 435 501 17,700 -1,790 Descending Salt Lake Center
Fri 07:49:39 PM 43.2589 -115.2514 293° West 421 484 15,600 -1,854 Descending Salt Lake Center
Fri 07:50:40 PM 43.3028 -115.3972 293° West 399 459 13,900 -1,951 Descending Salt Lake Center
Fri 07:51:42 PM 43.3425 -115.5322 292° West 368 423 11,600 -1,984 Descending Salt Lake Center
Fri 07:52:44 PM 43.3769 -115.6444 293° West 301 346 9,800 -1,707 Descending Salt Lake Center
Fri 07:53:45 PM 43.4072 -115.7481 292° West 282 325 8,100 -927 Descending Salt Lake Center
Fri 07:54:47 PM 43.4339 -115.8389 292° West 267 307 7,900 -484 Descending Salt Lake Center
Fri 07:55:49 PM 43.4592 -115.9217 293° West 226 260 7,100 -532 Descending Salt Lake Center
Fri 07:56:51 PM 43.4844 -115.9931 296° West 203 234 6,800 -683 Descending Salt Lake Center
Fri 07:57:52 PM 43.5072 -116.0583 296° West 186 214 5,700 -1,073 Descending Salt Lake Center
Fri 07:58:54 PM 43.5275 -116.1131 297° West 158 182 4,600 -968 Descending Salt Lake Center
Fri 07:59:56 PM 43.5419 -116.1569 294° West 135 155 3,700 -871 Descending Salt Lake Center
Fri 08:01:00 PM 43.5500 -116.2167 270° West  Level FlightAware Approximate
Fri 08:08:00 PM 43.5644 -116.2229 270° West  Level Estimated
Fri 08:09:00 PM 43.5644 -116.2229 270° West  Level Estimated
Fri 08:10:00 PM 43.5644 -116.2229 270° West  Level Estimated

Login

Don't have an account? Register now (free) for customized features, flight alerts, and more!